Time;durP1;ratioP1;P1;durP2;ratioP2;P2;SDS_P1;SDS_P2;PMS_P1;PMS_P2;Temp;Humidity;BMP_temperature;BMP_pressure;BME280_temperature;BME280_humidity;BME280_pressure;Samples;Min_cycle;Max_cycle;Signal;HPM_P1;HPM_P2
2021/06/16 00:00:12;;;;;;;3.73;3.53;;;;;;;18.00;79.19;94648.13;5133722;27;20524;-80
2021/06/16 00:02:39;;;;;;;3.90;3.60;;;;;;;17.99;79.34;94635.84;5133988;27;20498;-80
2021/06/16 00:05:07;;;;;;;5.80;3.40;;;;;;;17.94;79.31;94641.72;5133721;27;20863;-81
2021/06/16 00:07:35;;;;;;;4.23;3.50;;;;;;;17.94;79.61;94646.19;5133733;27;20438;-80
2021/06/16 00:10:02;;;;;;;4.27;3.97;;;;;;;17.95;79.55;94635.41;5133691;27;20504;-80
2021/06/16 00:12:29;;;;;;;4.87;4.37;;;;;;;17.96;79.26;94644.19;5133131;27;20489;-80
2021/06/16 00:14:56;;;;;;;4.93;4.00;;;;;;;17.93;79.59;94641.91;5133609;28;20439;-81
2021/06/16 00:17:23;;;;;;;10.00;4.27;;;;;;;17.90;79.88;94645.72;5133492;28;20438;-81
2021/06/16 00:19:50;;;;;;;7.37;3.53;;;;;;;17.92;79.73;94634.91;5133336;28;20503;-80
2021/06/16 00:22:17;;;;;;;4.80;4.30;;;;;;;17.90;79.70;94635.09;5133732;28;20461;-80
2021/06/16 00:24:46;;;;;;;4.10;3.70;;;;;;;17.93;79.74;94631.28;5133449;28;20505;-81
2021/06/16 00:27:13;;;;;;;4.23;3.93;;;;;;;17.89;79.69;94622.81;5133275;28;20447;-81
2021/06/16 00:29:40;;;;;;;4.50;4.20;;;;;;;17.89;79.58;94627.31;5133970;28;20857;-80
2021/06/16 00:32:08;;;;;;;4.70;4.40;;;;;;;17.86;79.93;94617.88;5133773;28;20494;-80
2021/06/16 00:34:35;;;;;;;4.70;4.37;;;;;;;17.90;79.75;94623.66;5133510;27;20546;-81
2021/06/16 00:37:02;;;;;;;4.80;4.40;;;;;;;17.92;79.84;94626.94;5133529;28;20448;-80
2021/06/16 00:39:29;;;;;;;13.33;3.93;;;;;;;17.94;79.93;94625.78;5133494;27;20470;-80
2021/06/16 00:41:57;;;;;;;5.00;4.60;;;;;;;17.90;80.19;94628.94;5133735;28;20450;-80
2021/06/16 00:44:24;;;;;;;4.73;4.33;;;;;;;17.93;79.56;94626.78;5133718;27;20501;-80
2021/06/16 00:46:51;;;;;;;4.47;4.17;;;;;;;17.95;79.81;94616.81;5114244;28;20465;-80
2021/06/16 00:49:19;;;;;;;4.27;3.53;;;;;;;17.95;79.96;94608.84;5114192;28;20437;-81
2021/06/16 00:51:46;;;;;;;3.80;3.57;;;;;;;17.98;79.48;94605.00;5133867;28;20475;-81
2021/06/16 00:54:13;;;;;;;5.13;4.43;;;;;;;17.99;79.76;94604.00;5133149;27;20806;-80
2021/06/16 00:56:41;;;;;;;5.40;4.50;;;;;;;18.00;79.29;94607.47;5133357;28;20449;-80
2021/06/16 00:59:10;;;;;;;3.67;3.47;;;;;;;17.98;79.76;94606.84;5133578;27;20482;-78
2021/06/16 01:01:44;;;;;;;4.30;4.00;;;;;;;17.97;80.03;94606.00;5133286;28;20909;-80
2021/06/16 01:04:22;;;;;;;5.90;3.97;;;;;;;17.98;79.65;94605.00;5133165;27;20819;-79
2021/06/16 01:06:52;;;;;;;4.67;3.53;;;;;;;17.97;79.87;94592.72;5133510;28;20441;-79
2021/06/16 01:09:23;;;;;;;5.67;4.10;;;;;;;17.95;79.85;94598.22;5132891;27;20474;-80
2021/06/16 01:12:00;;;;;;;4.37;4.07;;;;;;;17.98;79.27;94599.69;5133432;28;20445;-81
2021/06/16 01:14:35;;;;;;;5.63;3.90;;;;;;;17.97;79.45;94591.91;5133385;27;20539;-81
2021/06/16 01:17:06;;;;;;;4.20;3.80;;;;;;;17.98;79.93;94590.91;5134494;27;20434;-81
2021/06/16 01:19:46;;;;;;;7.03;4.23;;;;;;;18.00;79.06;94588.88;5136675;27;20493;-81
2021/06/16 01:22:20;;;;;;;5.67;3.80;;;;;;;17.97;78.73;94587.41;5137090;27;20505;-81
2021/06/16 01:24:52;;;;;;;4.40;3.90;;;;;;;17.98;78.75;94598.88;5136705;27;20443;-79
2021/06/16 01:27:21;;;;;;;4.70;3.47;;;;;;;17.90;79.68;94583.81;5136556;27;20442;-81
2021/06/16 01:29:49;;;;;;;5.83;3.93;;;;;;;17.89;79.58;94590.97;5136704;27;20452;-80
2021/06/16 01:32:16;;;;;;;6.10;4.20;;;;;;;17.90;79.92;94592.63;5136988;27;20495;-81
2021/06/16 01:34:44;;;;;;;4.80;3.33;;;;;;;17.92;79.06;94603.88;5136586;27;20512;-81
2021/06/16 01:37:11;;;;;;;9.60;3.80;;;;;;;17.91;79.69;94602.22;5136535;27;20491;-81
2021/06/16 01:39:40;;;;;;;5.03;4.40;;;;;;;17.91;79.91;94594.25;5136340;27;20448;-81
2021/06/16 01:42:13;;;;;;;5.10;4.13;;;;;;;17.94;79.41;94593.94;5136359;27;20918;-80
2021/06/16 01:44:43;;;;;;;5.00;3.90;;;;;;;17.99;79.22;94596.03;5136351;27;20456;-80
2021/06/16 01:47:10;;;;;;;4.70;3.80;;;;;;;17.98;79.42;94589.06;5117278;27;20476;-80
2021/06/16 01:49:39;;;;;;;4.70;4.27;;;;;;;18.00;79.27;94594.19;5136168;27;20452;-80
2021/06/16 01:52:07;;;;;;;4.17;3.80;;;;;;;17.95;79.27;94605.38;5136577;27;20495;-81
2021/06/16 01:54:35;;;;;;;5.67;4.40;;;;;;;17.94;79.36;94599.22;5136040;27;20526;-80
2021/06/16 01:57:03;;;;;;;4.87;4.43;;;;;;;17.93;79.55;94599.41;5136251;27;20447;-80
2021/06/16 01:59:32;;;;;;;4.90;4.17;;;;;;;17.98;79.18;94610.31;5136545;27;20495;-80
2021/06/16 02:02:00;;;;;;;4.10;3.80;;;;;;;18.02;79.29;94608.09;5135971;27;20941;-80
2021/06/16 02:04:28;;;;;;;4.40;3.23;;;;;;;18.08;79.09;94608.19;5136200;27;20507;-80
2021/06/16 02:07:03;;;;;;;6.60;4.33;;;;;;;18.07;79.23;94603.06;5135977;27;20450;-80
2021/06/16 02:09:30;;;;;;;5.40;3.77;;;;;;;18.13;78.87;94610.31;5135985;27;20484;-80
2021/06/16 02:11:58;;;;;;;4.63;4.30;;;;;;;18.17;78.69;94603.59;5099646;27;20523;-80
2021/06/16 02:14:26;;;;;;;4.27;3.90;;;;;;;18.14;78.50;94598.66;5136123;27;20515;-80
2021/06/16 02:16:58;;;;;;;3.60;3.30;;;;;;;18.14;78.59;94606.63;5135794;27;20762;-80
2021/06/16 02:19:29;;;;;;;10.10;3.90;;;;;;;18.16;78.40;94599.31;5135669;27;20445;-81
2021/06/16 02:21:57;;;;;;;4.17;3.87;;;;;;;18.11;78.69;94613.13;5135936;27;20478;-80
2021/06/16 02:24:25;;;;;;;4.47;4.20;;;;;;;18.11;78.98;94610.47;5117003;27;20454;-80
2021/06/16 02:26:53;;;;;;;4.33;3.90;;;;;;;18.15;78.64;94610.94;5135547;27;20470;-80
2021/06/16 02:29:21;;;;;;;7.70;4.27;;;;;;;18.16;78.48;94601.97;5135777;27;20452;-80
2021/06/16 02:31:49;;;;;;;9.13;3.47;;;;;;;18.13;78.92;94607.66;5135613;27;20831;-81
2021/06/16 02:34:16;;;;;;;5.87;4.30;;;;;;;18.07;78.83;94619.81;5135331;27;20517;-81
2021/06/16 02:36:46;;;;;;;6.73;4.07;;;;;;;18.03;79.10;94607.94;5135597;27;20450;-81
2021/06/16 02:39:15;;;;;;;4.23;3.83;;;;;;;18.06;78.79;94612.88;5135601;27;20442;-80
2021/06/16 02:41:44;;;;;;;6.77;3.90;;;;;;;18.04;78.50;94606.09;5116058;27;20441;-84
2021/06/16 02:44:12;;;;;;;7.40;4.50;;;;;;;18.00;79.22;94607.47;5135194;27;20937;-81
2021/06/16 02:46:42;;;;;;;4.07;3.80;;;;;;;17.98;78.91;94605.00;5135192;27;20477;-80
2021/06/16 02:49:10;;;;;;;8.10;5.17;;;;;;;18.00;79.11;94602.97;5116397;27;20470;-80
2021/06/16 02:51:40;;;;;;;4.03;3.73;;;;;;;18.00;79.05;94600.31;5135185;27;20445;-80
2021/06/16 02:54:12;;;;;;;5.03;4.03;;;;;;;18.00;80.59;94602.16;5134775;27;20486;-80
2021/06/16 02:56:41;;;;;;;7.00;4.53;;;;;;;17.97;78.98;94603.34;5135080;27;20498;-80
2021/06/16 02:59:11;;;;;;;9.80;4.30;;;;;;;17.93;79.17;94602.91;5135195;27;20765;-79
2021/06/16 03:01:39;;;;;;;4.97;4.57;;;;;;;17.94;79.44;94609.03;5135231;27;20849;-80
2021/06/16 03:04:07;;;;;;;7.73;4.63;;;;;;;17.94;79.36;94603.72;5134781;27;20774;-79
2021/06/16 03:06:35;;;;;;;4.97;3.67;;;;;;;17.92;79.33;94597.75;5126410;27;20451;-79
2021/06/16 03:09:02;;;;;;;3.70;3.30;;;;;;;17.95;79.75;94595.56;5114422;28;20482;-84
2021/06/16 03:11:33;;;;;;;3.20;3.00;;;;;;;17.97;79.35;94607.84;5114160;28;20842;-82
2021/06/16 03:14:02;;;;;;;6.37;3.73;;;;;;;18.02;79.20;94610.75;5095338;28;20482;-80
2021/06/16 03:16:29;;;;;;;3.43;3.23;;;;;;;18.00;78.76;94610.13;5114122;28;20448;-80
2021/06/16 03:18:58;;;;;;;4.43;4.00;;;;;;;18.03;78.82;94623.03;5122061;27;20858;-79
2021/06/16 03:21:25;;;;;;;5.10;3.53;;;;;;;18.01;78.73;94607.28;5099273;28;20438;-80
2021/06/16 03:23:53;;;;;;;9.07;4.23;;;;;;;17.98;78.82;94615.63;5094163;28;20440;-80
2021/06/16 03:26:23;;;;;;;5.03;4.03;;;;;;;17.99;79.12;94619.09;5114073;28;20500;-80
2021/06/16 03:28:52;;;;;;;5.53;4.00;;;;;;;18.00;78.77;94612.78;5114046;28;21003;-80
2021/06/16 03:31:21;;;;;;;5.07;3.67;;;;;;;17.98;78.70;94626.25;5113564;28;20470;-82
2021/06/16 03:33:49;;;;;;;5.43;4.53;;;;;;;18.03;78.82;94617.72;5113782;28;20580;-80
2021/06/16 03:36:20;;;;;;;4.43;3.87;;;;;;;18.05;78.92;94613.06;5113626;28;20507;-81
2021/06/16 03:38:49;;;;;;;4.20;3.90;;;;;;;18.03;78.48;94628.34;5113657;28;20451;-80
2021/06/16 03:41:16;;;;;;;4.40;4.00;;;;;;;18.06;79.72;94620.00;5113230;28;20481;-79
2021/06/16 03:43:46;;;;;;;4.10;3.70;;;;;;;18.04;78.71;94622.84;5113488;28;20492;-80
2021/06/16 03:46:17;;;;;;;3.80;3.50;;;;;;;18.09;78.50;94624.94;5113467;28;20447;-79
2021/06/16 03:48:47;;;;;;;4.90;4.50;;;;;;;18.08;78.54;94626.78;5113752;28;20469;-78
2021/06/16 03:51:15;;;;;;;4.63;4.23;;;;;;;18.09;78.09;94630.28;5113674;28;20509;-79
2021/06/16 03:53:44;;;;;;;5.03;4.63;;;;;;;18.04;78.56;94624.69;5113388;28;20540;-79
2021/06/16 03:56:11;;;;;;;4.53;4.13;;;;;;;18.07;78.25;94629.63;5094632;28;20451;-79
2021/06/16 03:58:40;;;;;;;5.10;4.60;;;;;;;18.05;78.73;94636.94;5113540;28;20446;-79
2021/06/16 04:01:11;;;;;;;4.40;4.00;;;;;;;18.04;78.86;94640.63;5113394;28;20500;-80
2021/06/16 04:03:40;;;;;;;3.47;3.17;;;;;;;18.07;78.76;94633.09;5113306;28;20477;-79
2021/06/16 04:06:08;;;;;;;5.67;4.33;;;;;;;18.11;78.98;94631.72;5094134;28;20431;-79
2021/06/16 04:08:37;;;;;;;7.63;3.90;;;;;;;18.14;78.82;94635.84;5113348;28;20504;-80
2021/06/16 04:11:04;;;;;;;5.67;4.30;;;;;;;18.16;78.70;94639.16;5113362;28;20771;-80
2021/06/16 04:13:31;;;;;;;4.03;3.73;;;;;;;18.14;78.42;94654.44;5094205;28;20511;-81
2021/06/16 04:15:59;;;;;;;4.10;3.70;;;;;;;18.16;78.34;94655.91;5113018;28;20861;-81
2021/06/16 04:18:26;;;;;;;4.80;4.40;;;;;;;18.19;78.52;94658.19;5113173;28;20471;-80
2021/06/16 04:20:55;;;;;;;4.33;3.93;;;;;;;18.26;77.84;94655.66;5113232;28;20445;-81
2021/06/16 04:23:22;;;;;;;6.77;4.37;;;;;;;18.33;77.50;94656.56;5128363;27;20989;-81
2021/06/16 04:25:49;;;;;;;8.73;4.17;;;;;;;18.36;78.09;94650.88;5117780;27;20508;-81
2021/06/16 04:28:16;;;;;;;4.40;4.00;;;;;;;18.52;77.11;94650.72;5117798;27;20439;-80
2021/06/16 04:30:43;;;;;;;5.20;3.63;;;;;;;18.76;76.35;94651.41;5118139;27;20447;-80
2021/06/16 04:33:10;;;;;;;8.03;4.13;;;;;;;19.16;75.24;94658.03;5117983;27;20494;-81
2021/06/16 04:35:37;;;;;;;5.47;3.73;;;;;;;19.36;73.40;94644.91;5117799;27;20554;-80
2021/06/16 04:38:05;;;;;;;6.50;3.87;;;;;;;19.24;73.30;94644.63;5154303;27;20518;-80
2021/06/16 04:40:33;;;;;;;5.80;3.80;;;;;;;19.12;73.64;94646.97;5154209;27;20494;-80
2021/06/16 04:43:00;;;;;;;4.50;4.10;;;;;;;19.02;74.07;94646.41;5154374;27;20445;-81
2021/06/16 04:45:27;;;;;;;8.47;3.83;;;;;;;18.98;74.62;94653.13;5154002;27;20444;-80
2021/06/16 04:47:54;;;;;;;4.40;4.00;;;;;;;19.10;74.68;94654.31;5154069;27;20526;-80
2021/06/16 04:50:21;;;;;;;5.50;4.00;;;;;;;19.42;73.91;94646.84;5154104;27;20448;-80
2021/06/16 04:52:48;;;;;;;4.87;4.40;;;;;;;19.93;71.35;94649.34;5157123;27;20500;-82
2021/06/16 04:55:17;;;;;;;6.03;3.30;;;;;;;20.45;69.14;94651.59;5157587;27;20556;-83
2021/06/16 04:57:44;;;;;;;4.20;3.70;;;;;;;20.95;68.01;94642.41;5158089;27;20445;-80
2021/06/16 05:00:12;;;;;;;6.20;4.20;;;;;;;21.42;65.90;94646.06;5158035;27;20920;-81
2021/06/16 05:02:40;;;;;;;5.90;3.60;;;;;;;21.64;64.65;94644.84;5121618;27;20798;-81
2021/06/16 05:05:09;;;;;;;6.20;3.40;;;;;;;21.53;64.66;94652.63;5147867;27;21014;-80
2021/06/16 05:07:37;;;;;;;4.20;3.80;;;;;;;21.77;65.68;94643.22;5117750;27;20446;-80
2021/06/16 05:10:04;;;;;;;4.07;3.87;;;;;;;22.11;65.55;94656.41;5136556;27;20517;-80
2021/06/16 05:12:33;;;;;;;5.10;3.53;;;;;;;22.64;62.49;94659.00;5117892;27;20482;-80
2021/06/16 05:15:00;;;;;;;4.20;3.67;;;;;;;22.92;61.75;94661.41;5101028;27;20515;-81
2021/06/16 05:17:27;;;;;;;7.93;4.23;;;;;;;23.05;60.60;94672.03;5118074;27;20510;-82
2021/06/16 05:19:57;;;;;;;4.03;3.73;;;;;;;22.46;60.97;94664.16;5117690;27;20497;-81
2021/06/16 05:22:25;;;;;;;5.97;4.47;;;;;;;22.38;62.06;94662.53;5118068;27;20448;-84
2021/06/16 05:24:53;;;;;;;8.73;4.20;;;;;;;22.51;64.13;94669.72;5136601;27;20450;-81
2021/06/16 05:27:20;;;;;;;4.77;4.10;;;;;;;22.65;62.09;94667.84;5136713;27;20522;-81
2021/06/16 05:29:51;;;;;;;3.93;3.63;;;;;;;22.94;60.84;94666.53;5136648;27;20842;-81
2021/06/16 05:32:18;;;;;;;4.97;3.87;;;;;;;23.11;60.43;94667.69;5136713;27;20449;-82
2021/06/16 05:34:45;;;;;;;5.87;3.50;;;;;;;23.11;59.30;94670.38;5136528;27;20527;-82
2021/06/16 05:37:12;;;;;;;7.60;4.20;;;;;;;23.26;58.98;94664.75;5136357;27;20449;-80
2021/06/16 05:39:40;;;;;;;3.93;3.33;;;;;;;23.35;59.12;94674.19;5136569;27;20452;-81
2021/06/16 05:42:08;;;;;;;5.63;4.07;;;;;;;23.51;57.91;94671.00;5136692;27;20476;-82
2021/06/16 05:44:35;;;;;;;4.07;3.67;;;;;;;23.48;57.91;94674.94;5117305;27;20507;-83
2021/06/16 05:47:03;;;;;;;5.60;3.60;;;;;;;23.26;58.93;94675.47;5117306;27;20834;-82
2021/06/16 05:49:31;;;;;;;6.20;3.70;;;;;;;22.71;59.60;94667.81;5117368;27;20479;-80
2021/06/16 05:51:58;;;;;;;6.30;3.77;;;;;;;22.42;62.25;94676.31;5136161;27;20505;-80
2021/06/16 05:54:26;;;;;;;3.30;3.10;;;;;;;22.17;62.05;94676.94;5136308;27;20876;-81
2021/06/16 05:56:53;;;;;;;5.00;3.77;;;;;;;21.93;63.29;94680.19;5136413;27;20443;-81
2021/06/16 05:59:20;;;;;;;5.40;3.87;;;;;;;21.78;64.13;94688.44;5136143;27;20447;-81
2021/06/16 06:01:48;;;;;;;8.03;3.80;;;;;;;21.51;64.60;94684.88;5136343;27;20495;-82
2021/06/16 06:04:17;;;;;;;5.10;4.20;;;;;;;21.14;65.91;94690.69;5135519;27;20526;-81
2021/06/16 06:06:44;;;;;;;7.73;4.27;;;;;;;20.98;67.42;94681.19;5136034;27;20472;-82
2021/06/16 06:09:11;;;;;;;5.57;4.30;;;;;;;21.00;67.38;94674.63;5135732;27;20477;-81
2021/06/16 06:11:39;;;;;;;4.40;3.30;;;;;;;20.99;67.59;94678.31;5136224;27;20510;-81
2021/06/16 06:14:06;;;;;;;5.87;3.97;;;;;;;20.98;67.63;94682.00;5116487;27;20994;-81
2021/06/16 06:16:33;;;;;;;4.73;4.20;;;;;;;20.95;68.41;94690.41;5116850;27;20441;-81
2021/06/16 06:19:00;;;;;;;4.80;4.50;;;;;;;20.96;68.00;94692.06;5135516;27;20446;-80
2021/06/16 06:21:31;;;;;;;7.60;4.43;;;;;;;20.75;68.56;94689.47;5135957;27;20477;-82
2021/06/16 06:23:58;;;;;;;6.03;4.30;;;;;;;20.69;69.60;94700.94;5135884;27;20529;-81
2021/06/16 06:26:25;;;;;;;13.13;3.80;;;;;;;20.65;69.84;94700.53;5135848;27;20953;-82
2021/06/16 06:28:53;;;;;;;7.70;4.07;;;;;;;20.62;69.32;94692.09;5135765;27;20457;-81
2021/06/16 06:31:20;;;;;;;4.20;3.80;;;;;;;20.53;69.64;94702.09;5135298;27;20480;-81
2021/06/16 06:33:47;;;;;;;4.10;3.80;;;;;;;20.47;70.30;94700.19;5135592;27;20484;-81
2021/06/16 06:36:14;;;;;;;3.80;3.60;;;;;;;20.46;70.64;94700.38;5135282;27;20489;-81
2021/06/16 06:38:43;;;;;;;4.13;3.70;;;;;;;20.46;69.58;94706.53;5135714;27;20585;-81
2021/06/16 06:41:10;;;;;;;12.17;4.97;;;;;;;20.49;70.39;94714.16;5135122;27;20449;-81
2021/06/16 06:43:37;;;;;;;5.20;4.33;;;;;;;20.48;69.89;94717.00;5135213;27;20434;-80
2021/06/16 06:46:04;;;;;;;7.33;4.67;;;;;;;20.46;71.14;94714.53;5135031;27;20482;-80
2021/06/16 06:48:31;;;;;;;6.20;4.13;;;;;;;20.53;71.11;94725.25;5135065;27;20474;-81
2021/06/16 06:50:59;;;;;;;3.80;3.50;;;;;;;20.49;70.50;94726.66;5135109;27;20502;-80
2021/06/16 06:53:28;;;;;;;10.83;4.60;;;;;;;20.37;71.17;94721.84;5135140;27;20476;-81
2021/06/16 06:55:57;;;;;;;4.10;3.80;;;;;;;20.40;72.04;94726.81;5135056;27;20493;-81
2021/06/16 06:58:24;;;;;;;12.23;5.50;;;;;;;20.45;76.22;94718.22;5135107;27;20466;-80
2021/06/16 07:00:51;;;;;;;6.17;4.90;;;;;;;20.45;71.66;94715.56;5134823;27;20442;-81
2021/06/16 07:03:18;;;;;;;4.70;4.20;;;;;;;20.41;71.55;94728.47;5135178;27;20445;-81
2021/06/16 07:05:45;;;;;;;5.80;4.40;;;;;;;20.39;71.16;94730.47;5134810;27;20840;-81
2021/06/16 07:08:12;;;;;;;9.13;4.70;;;;;;;20.36;71.52;94727.38;5134734;27;20473;-81
2021/06/16 07:10:39;;;;;;;6.07;4.60;;;;;;;20.33;72.45;94719.75;5135198;27;20546;-81
2021/06/16 07:13:08;;;;;;;8.83;4.37;;;;;;;20.32;72.16;94724.25;5134465;27;20485;-81
2021/06/16 07:15:35;;;;;;;5.33;4.83;;;;;;;20.45;72.55;94717.41;5133766;27;20833;-81
2021/06/16 07:18:02;;;;;;;5.27;4.77;;;;;;;20.52;72.61;94719.09;5134444;27;20446;-79
2021/06/16 07:20:32;;;;;;;11.33;4.50;;;;;;;20.63;72.53;94725.72;5134606;27;20541;-80
2021/06/16 07:22:59;;;;;;;6.97;4.87;;;;;;;20.71;71.56;94728.25;5134468;27;20522;-81
2021/06/16 07:25:27;;;;;;;3.63;3.40;;;;;;;20.80;70.90;94727.06;5134342;27;20909;-80
2021/06/16 07:27:55;;;;;;;4.47;4.13;;;;;;;20.85;70.85;94721.97;5134676;27;20808;-80
2021/06/16 07:30:23;;;;;;;4.30;3.90;;;;;;;21.01;70.84;94710.13;5115056;27;20909;-80
2021/06/16 07:32:53;;;;;;;5.17;4.60;;;;;;;21.13;70.45;94715.75;5134152;27;20983;-80
2021/06/16 07:35:20;;;;;;;5.47;4.37;;;;;;;21.28;69.88;94714.59;5134181;27;20489;-80
2021/06/16 07:37:47;;;;;;;15.93;5.50;;;;;;;21.53;70.44;94700.69;5134440;27;20869;-81
2021/06/16 07:40:16;;;;;;;8.50;4.67;;;;;;;21.93;67.95;94713.09;5134030;27;20442;-80
2021/06/16 07:42:43;;;;;;;6.27;5.00;;;;;;;22.23;67.88;94716.22;5134250;27;20451;-81
2021/06/16 07:45:12;;;;;;;6.40;4.03;;;;;;;22.65;65.76;94713.31;5134021;27;21216;-80
2021/06/16 07:47:40;;;;;;;6.47;3.90;;;;;;;22.79;64.64;94707.72;5134330;27;20449;-81
2021/06/16 07:50:09;;;;;;;5.40;3.90;;;;;;;22.82;64.52;94695.78;5134101;27;20483;-80
2021/06/16 07:52:36;;;;;;;4.67;4.17;;;;;;;22.74;63.79;94707.53;5134045;27;20463;-80
2021/06/16 07:55:04;;;;;;;5.67;4.00;;;;;;;22.73;63.80;94703.19;5133572;27;20898;-81
2021/06/16 07:57:31;;;;;;;4.83;4.40;;;;;;;22.76;63.35;94693.94;5133962;27;20438;-81
2021/06/16 07:59:58;;;;;;;5.00;4.50;;;;;;;22.86;64.36;94695.19;5133874;27;20470;-81
2021/06/16 08:02:26;;;;;;;4.90;4.40;;;;;;;22.98;63.36;94703.38;5133951;27;20442;-81
2021/06/16 08:04:55;;;;;;;4.80;4.40;;;;;;;23.09;63.78;94710.75;5134086;27;20451;-80
2021/06/16 08:07:22;;;;;;;4.40;4.07;;;;;;;23.15;63.71;94707.25;5133679;27;20480;-80
2021/06/16 08:09:49;;;;;;;3.57;3.37;;;;;;;23.09;62.85;94709.91;5114296;28;20874;-80
2021/06/16 08:12:16;;;;;;;5.03;3.87;;;;;;;23.04;63.00;94723.13;5114446;28;20480;-80
2021/06/16 08:14:44;;;;;;;4.13;3.80;;;;;;;23.02;62.56;94717.16;5133770;28;20449;-81
2021/06/16 08:17:12;;;;;;;6.00;4.30;;;;;;;23.17;62.88;94720.41;5114606;28;20446;-82
2021/06/16 08:19:39;;;;;;;5.23;4.10;;;;;;;23.19;61.75;94729.06;5133710;28;20444;-81
2021/06/16 08:22:11;;;;;;;5.40;4.90;;;;;;;23.23;62.26;94730.28;5133506;28;20476;-81
2021/06/16 08:24:38;;;;;;;4.13;3.73;;;;;;;23.20;61.21;94729.88;5114422;28;20467;-81
2021/06/16 08:27:06;;;;;;;5.13;4.63;;;;;;;23.23;61.63;94732.94;5137055;27;20901;-80
2021/06/16 08:29:34;;;;;;;4.97;4.33;;;;;;;23.34;62.29;94728.78;5118367;27;20441;-81
2021/06/16 08:32:01;;;;;;;4.83;4.13;;;;;;;23.28;62.07;94732.31;5137688;27;20463;-81
2021/06/16 08:34:28;;;;;;;6.40;4.20;;;;;;;23.24;62.02;94728.41;5137708;27;20448;-82
2021/06/16 08:36:55;;;;;;;7.73;4.50;;;;;;;23.20;61.62;94736.03;5137591;27;20514;-81
2021/06/16 08:39:23;;;;;;;5.77;5.27;;;;;;;23.17;63.18;94739.97;5137698;27;20473;-82
2021/06/16 08:41:52;;;;;;;7.50;4.60;;;;;;;23.31;63.50;94731.88;5137480;27;20554;-81
2021/06/16 08:44:19;;;;;;;6.63;4.73;;;;;;;23.49;62.89;94730.16;5137287;27;20448;-80
2021/06/16 08:46:47;;;;;;;6.13;4.77;;;;;;;23.70;61.30;94738.94;5137680;27;20446;-81
2021/06/16 08:49:14;;;;;;;9.67;5.43;;;;;;;23.77;60.31;94739.72;5137131;27;20449;-80
2021/06/16 08:51:41;;;;;;;6.90;6.37;;;;;;;23.85;58.32;94744.00;5118317;27;20533;-81
2021/06/16 08:54:10;;;;;;;7.00;4.53;;;;;;;23.86;57.94;94740.28;5118332;27;20475;-81
2021/06/16 08:56:39;;;;;;;12.27;8.87;;;;;;;23.87;58.92;94747.28;5137429;27;20511;-82
2021/06/16 08:59:06;;;;;;;9.07;5.90;;;;;;;23.83;58.14;94746.09;5137006;27;20450;-81
2021/06/16 09:01:33;;;;;;;7.37;6.57;;;;;;;23.70;58.35;94746.97;5137259;27;20449;-81
2021/06/16 09:04:00;;;;;;;5.40;4.90;;;;;;;23.68;58.22;94749.84;5137046;27;20848;-81
2021/06/16 09:06:31;;;;;;;7.07;6.47;;;;;;;23.75;58.97;94744.50;5137204;27;20446;-81
2021/06/16 09:09:00;;;;;;;6.87;6.23;;;;;;;23.74;58.95;94742.84;5136897;27;21092;-81
2021/06/16 09:11:30;;;;;;;4.73;4.43;;;;;;;23.73;58.76;94751.91;5136983;27;20497;-81
2021/06/16 09:14:15;;;;;;;11.10;4.40;;;;;;;23.73;59.23;94751.91;5137007;27;20934;-82
2021/06/16 09:16:43;;;;;;;5.83;3.87;;;;;;;23.73;58.82;94751.91;5136744;27;20517;-81
2021/06/16 09:19:21;;;;;;;8.37;4.70;;;;;;;23.72;60.50;94758.31;5136841;27;20447;-81
2021/06/16 09:21:49;;;;;;;5.57;5.07;;;;;;;23.63;58.83;94762.25;5136814;27;20453;-81
2021/06/16 09:24:17;;;;;;;4.40;4.00;;;;;;;23.58;59.13;94764.75;5136663;27;20443;-81
2021/06/16 09:26:46;;;;;;;4.40;4.10;;;;;;;23.55;58.32;94765.16;5136848;27;20502;-81
2021/06/16 09:29:14;;;;;;;4.37;3.70;;;;;;;23.43;59.03;94770.38;5136601;27;20474;-80
2021/06/16 09:31:43;;;;;;;4.50;4.10;;;;;;;23.37;58.69;94763.16;5136749;27;20479;-81
2021/06/16 09:34:12;;;;;;;5.00;4.43;;;;;;;23.37;60.42;94768.50;5136657;27;20470;-80
2021/06/16 09:36:54;;;;;;;7.40;4.13;;;;;;;23.21;60.44;94764.47;5117378;27;20493;-81
2021/06/16 09:39:24;;;;;;;4.73;4.33;;;;;;;23.20;61.15;94768.19;5136225;27;20498;-80
2021/06/16 09:42:00;;;;;;;4.47;4.07;;;;;;;23.15;60.87;94768.81;5136475;27;20524;-80
2021/06/16 09:44:50;;;;;;;5.33;4.93;;;;;;;23.07;61.22;94771.69;5136299;27;20448;-81
2021/06/16 09:47:20;;;;;;;4.73;4.33;;;;;;;23.16;62.61;94775.81;5136397;27;20444;-80
2021/06/16 09:49:55;;;;;;;6.33;4.37;;;;;;;23.23;63.01;94770.44;5136181;27;20453;-80
2021/06/16 09:52:37;;;;;;;5.10;4.57;;;;;;;23.26;62.02;94769.19;5136246;27;20494;-81
2021/06/16 09:55:07;;;;;;;8.20;3.93;;;;;;;23.20;61.74;94773.53;5136070;27;20449;-81
2021/06/16 09:57:35;;;;;;;5.20;4.70;;;;;;;23.20;61.81;94776.22;5136182;27;20963;-81
2021/06/16 10:00:09;;;;;;;5.17;4.60;;;;;;;23.22;62.58;94773.31;5136060;27;20474;-81
2021/06/16 10:02:40;;;;;;;6.83;4.00;;;;;;;23.27;61.18;94774.31;5116820;27;20493;-81
2021/06/16 10:05:11;;;;;;;4.40;4.10;;;;;;;23.35;61.90;94773.25;5136231;27;20441;-81
2021/06/16 10:07:38;;;;;;;4.53;4.23;;;;;;;23.42;62.62;94772.22;5116693;27;20445;-81
2021/06/16 10:10:08;;;;;;;4.97;4.13;;;;;;;23.43;60.81;94784.59;5136055;27;20481;-81
2021/06/16 10:12:37;;;;;;;5.70;5.20;;;;;;;23.45;61.30;94782.50;5116581;27;20462;-80
2021/06/16 10:15:07;;;;;;;4.67;4.30;;;;;;;23.53;61.13;94773.41;5135631;27;20845;-80
2021/06/16 10:17:34;;;;;;;8.43;7.73;;;;;;;23.51;60.72;94780.84;5135714;27;21242;-80
2021/06/16 10:20:01;;;;;;;8.97;8.07;;;;;;;23.59;61.21;94777.13;5099515;27;20422;-80
2021/06/16 10:22:29;;;;;;;6.80;6.20;;;;;;;23.64;61.22;94775.44;5135617;27;20475;-81
2021/06/16 10:24:56;;;;;;;11.73;4.80;;;;;;;23.67;61.08;94780.38;5116232;27;20437;-80
2021/06/16 10:27:29;;;;;;;7.30;6.60;;;;;;;23.67;60.76;94780.38;5135508;27;20443;-80
2021/06/16 10:30:03;;;;;;;9.53;8.63;;;;;;;23.60;61.52;94779.59;5135652;27;20445;-81
2021/06/16 10:32:38;;;;;;;11.17;10.17;;;;;;;23.52;61.90;94776.31;5135601;27;20478;-81
2021/06/16 10:35:07;;;;;;;6.47;5.80;;;;;;;23.47;62.58;94774.25;5135361;27;20437;-80
2021/06/16 10:37:36;;;;;;;8.17;5.10;;;;;;;23.42;57.88;94768.72;5135167;27;20517;-80
2021/06/16 10:40:34;;;;;;;3.60;3.40;;;;;;;23.40;60.17;94773.44;5135130;27;20967;-80
2021/06/16 10:43:18;;;;;;;4.17;3.77;;;;;;;23.41;59.12;94772.41;5135110;27;20454;-81
2021/06/16 10:45:52;;;;;;;6.77;4.30;;;;;;;23.48;60.58;94774.06;5135222;27;20468;-80
2021/06/16 10:48:21;;;;;;;4.40;4.03;;;;;;;23.55;59.94;94773.19;5135117;27;20449;-81
2021/06/16 10:51:02;;;;;;;3.90;3.60;;;;;;;23.52;58.82;94770.94;5134837;27;20444;-81
2021/06/16 10:53:29;;;;;;;5.40;4.20;;;;;;;23.47;60.46;94774.25;5134968;27;20447;-81
2021/06/16 10:56:08;;;;;;;3.67;3.40;;;;;;;23.44;60.66;94769.34;5134752;27;20878;-80
2021/06/16 10:58:45;;;;;;;5.90;3.67;;;;;;;23.40;59.22;94763.56;5134634;27;20456;-81
2021/06/16 11:01:17;;;;;;;6.23;3.40;;;;;;;23.40;57.57;94768.91;5134808;27;20433;-82
2021/06/16 11:04:04;;;;;;;3.40;2.90;;;;;;;23.40;56.13;94779.63;5134344;27;20962;-82
2021/06/16 11:06:37;;;;;;;4.00;3.70;;;;;;;23.42;55.26;94782.13;5134453;27;20578;-80
2021/06/16 11:09:06;;;;;;;6.30;4.63;;;;;;;23.53;56.26;94780.63;5134266;27;20480;-82
2021/06/16 11:12:08;;;;;;;4.43;4.00;;;;;;;23.73;54.87;94779.53;5134518;27;20922;-82
2021/06/16 11:14:49;;;;;;;3.50;2.67;;;;;;;23.74;54.49;94775.00;5134299;27;20450;-81
2021/06/16 11:17:47;;;;;;;7.03;3.70;;;;;;;23.73;53.53;94773.34;5134094;27;20514;-81
2021/06/16 11:20:22;;;;;;;5.40;3.37;;;;;;;23.71;55.04;94770.06;5071170;28;20440;-81
2021/06/16 11:22:54;;;;;;;3.27;2.97;;;;;;;23.56;54.43;94778.38;5070900;28;20854;-81
2021/06/16 11:25:36;;;;;;;3.37;3.07;;;;;;;23.43;55.63;94773.03;5070910;28;20483;-80
2021/06/16 11:28:12;;;;;;;2.83;2.60;;;;;;;23.49;53.53;94780.22;5071039;28;20943;-84
2021/06/16 11:30:43;;;;;;;6.00;3.00;;;;;;;23.62;53.47;94776.69;5070852;28;20483;-81
2021/06/16 11:33:52;;;;;;;2.80;2.60;;;;;;;23.61;52.07;94778.53;5070982;28;20477;-84
2021/06/16 11:36:43;;;;;;;3.87;3.30;;;;;;;23.51;53.16;94780.84;5070841;28;20518;-82
2021/06/16 11:39:16;;;;;;;3.33;3.13;;;;;;;23.48;55.04;94783.94;5070664;28;20802;-81
2021/06/16 11:41:46;;;;;;;4.20;3.53;;;;;;;23.40;55.21;94779.63;5070804;28;20453;-81
2021/06/16 11:44:15;;;;;;;3.33;3.13;;;;;;;23.35;54.53;94779.44;5021673;28;20605;-83